createdAt,value
2022-08-02T00:00:35.336Z,21.40
2022-08-02T00:03:02.439Z,21.50
2022-08-02T00:05:29.411Z,21.60
2022-08-02T00:07:56.321Z,21.70
2022-08-02T00:10:23.286Z,21.70
2022-08-02T00:12:50.438Z,21.60
2022-08-02T00:15:17.562Z,21.50
2022-08-02T00:17:45.535Z,21.30
2022-08-02T00:20:14.621Z,21.30
2022-08-02T00:22:41.600Z,21.40
2022-08-02T00:25:08.862Z,21.30
2022-08-02T00:27:36.103Z,21.20
2022-08-02T00:30:03.357Z,21.20
2022-08-02T00:32:30.218Z,21.10
2022-08-02T00:34:57.216Z,21.40
2022-08-02T00:37:24.159Z,21.50
2022-08-02T00:39:51.018Z,21.40
2022-08-02T00:42:18.674Z,21.30
2022-08-02T00:44:45.898Z,21.30
2022-08-02T00:47:19.071Z,21.40
2022-08-02T00:49:47.180Z,21.40
2022-08-02T00:52:14.907Z,21.30
2022-08-02T00:54:42.294Z,21.30
2022-08-02T00:57:09.300Z,21.40
2022-08-02T00:59:36.485Z,21.40
2022-08-02T01:02:03.529Z,21.40
2022-08-02T01:04:32.228Z,21.20
2022-08-02T01:07:12.262Z,21.10
2022-08-02T01:09:40.654Z,21.10
2022-08-02T01:12:08.038Z,21.10
2022-08-02T01:14:35.242Z,21.10
2022-08-02T01:17:31.187Z,21.00
2022-08-02T01:20:07.582Z,21.00
2022-08-02T01:23:00.961Z,21.00
2022-08-02T01:25:48.011Z,21.10
2022-08-02T01:28:34.636Z,20.90
2022-08-02T01:31:23.169Z,20.80
2022-08-02T01:34:04.329Z,20.70
2022-08-02T01:36:36.549Z,20.80
2022-08-02T01:39:05.480Z,20.70
2022-08-02T01:41:35.098Z,20.70
2022-08-02T01:44:05.023Z,20.70
2022-08-02T01:46:34.220Z,20.70
2022-08-02T01:49:08.479Z,20.60
2022-08-02T01:51:56.454Z,20.50
2022-08-02T01:54:27.028Z,20.60
2022-08-02T01:56:56.666Z,20.60
2022-08-02T01:59:25.211Z,20.60
2022-08-02T02:01:56.021Z,20.70
2022-08-02T02:04:23.999Z,20.70
2022-08-02T02:06:52.853Z,20.70
2022-08-02T02:09:22.137Z,20.60
2022-08-02T02:12:05.156Z,20.60
2022-08-02T02:14:38.462Z,20.50
2022-08-02T02:17:07.047Z,20.40
2022-08-02T02:19:36.062Z,20.30
2022-08-02T02:22:03.732Z,20.30
2022-08-02T02:24:31.425Z,20.30
2022-08-02T02:27:02.063Z,20.30
2022-08-02T02:29:32.545Z,20.20
2022-08-02T02:32:01.823Z,20.30
2022-08-02T02:34:38.138Z,20.20
2022-08-02T02:37:08.652Z,20.10
2022-08-02T02:39:38.150Z,20.00
2022-08-02T02:42:09.799Z,20.00
2022-08-02T02:44:38.697Z,20.10
2022-08-02T02:47:06.332Z,20.20
2022-08-02T02:49:35.091Z,20.10
2022-08-02T02:52:05.925Z,20.00
2022-08-02T02:54:35.335Z,20.00
2022-08-02T02:57:04.554Z,20.00
2022-08-02T02:59:34.094Z,19.90
2022-08-02T03:02:02.195Z,20.00
2022-08-02T03:04:56.083Z,20.00
2022-08-02T03:07:18.376Z,20.00
2022-08-02T03:09:53.880Z,20.00
2022-08-02T03:12:30.183Z,19.90
2022-08-02T03:15:05.161Z,19.80
2022-08-02T03:17:43.389Z,19.80
2022-08-02T03:20:18.251Z,19.70
2022-08-02T03:22:47.262Z,19.70
2022-08-02T03:25:15.191Z,19.60
2022-08-02T03:27:42.489Z,19.60
2022-08-02T03:30:11.903Z,19.60
2022-08-02T03:32:40.728Z,19.70
2022-08-02T03:35:11.275Z,19.60
2022-08-02T03:37:38.625Z,19.50
2022-08-02T03:40:08.561Z,19.50
2022-08-02T03:42:35.760Z,19.50
2022-08-02T03:45:09.284Z,19.50
2022-08-02T03:47:39.210Z,19.50
2022-08-02T03:50:08.636Z,19.50
2022-08-02T03:52:36.112Z,19.60
2022-08-02T03:55:03.237Z,19.60
2022-08-02T03:57:30.364Z,19.60
2022-08-02T03:59:57.324Z,19.60
2022-08-02T04:02:24.176Z,19.40
2022-08-02T04:04:51.075Z,19.30
2022-08-02T04:08:02.355Z,19.30
2022-08-02T04:10:06.005Z,19.30
2022-08-02T04:12:33.056Z,19.40
2022-08-02T04:15:01.632Z,19.30
2022-08-02T04:17:36.128Z,19.20
2022-08-02T04:20:08.843Z,19.20
2022-08-02T04:22:58.644Z,19.10
2022-08-02T04:25:35.577Z,19.10
2022-08-02T04:28:17.584Z,19.10
2022-08-02T04:30:49.822Z,19.20
2022-08-02T04:33:17.148Z,19.00
2022-08-02T04:35:45.054Z,18.90
2022-08-02T04:38:15.899Z,18.90
2022-08-02T04:40:55.405Z,18.80
2022-08-02T04:43:23.429Z,18.90
2022-08-02T04:45:52.815Z,19.00
2022-08-02T04:48:20.688Z,19.00
2022-08-02T04:50:47.877Z,19.10
2022-08-02T04:53:14.981Z,19.10
2022-08-02T04:55:42.054Z,19.00
2022-08-02T04:58:30.091Z,19.00
2022-08-02T05:00:56.166Z,19.10
2022-08-02T05:03:23.130Z,19.10
2022-08-02T05:05:50.040Z,18.90
2022-08-02T05:08:17.039Z,18.90
2022-08-02T05:10:43.961Z,18.90
2022-08-02T05:13:11.154Z,18.90
2022-08-02T05:15:38.552Z,18.90
2022-08-02T05:18:05.690Z,19.10
2022-08-02T05:20:32.641Z,19.10
2022-08-02T05:22:59.538Z,19.20
2022-08-02T05:25:26.490Z,19.00
2022-08-02T05:27:53.442Z,18.80
2022-08-02T05:30:20.403Z,18.60
2022-08-02T05:32:49.614Z,18.60
2022-08-02T05:35:21.895Z,18.60
2022-08-02T05:37:50.170Z,18.60
2022-08-02T05:40:25.371Z,18.60
2022-08-02T05:42:53.721Z,18.60
2022-08-02T05:45:20.652Z,18.40
2022-08-02T05:47:47.612Z,18.50
2022-08-02T05:50:15.126Z,18.40
2022-08-02T05:52:50.743Z,18.50
2022-08-02T05:55:47.532Z,18.60
2022-08-02T05:58:27.714Z,18.70
2022-08-02T06:00:56.706Z,18.60
2022-08-02T06:03:32.289Z,18.70
2022-08-02T06:06:17.804Z,18.80
2022-08-02T06:08:48.392Z,18.80
2022-08-02T06:11:18.511Z,18.70
2022-08-02T06:13:47.010Z,18.80
2022-08-02T06:16:14.983Z,18.70
2022-08-02T06:18:43.604Z,18.90
2022-08-02T06:22:35.872Z,18.90
2022-08-02T06:23:59.540Z,18.90
2022-08-02T06:26:29.474Z,18.80
2022-08-02T06:28:57.953Z,18.80
2022-08-02T06:31:25.409Z,18.90
2022-08-02T06:33:52.371Z,18.90
2022-08-02T06:36:19.235Z,19.00
2022-08-02T06:39:12.801Z,19.10
2022-08-02T06:41:42.553Z,19.20
2022-08-02T06:44:42.345Z,19.20
2022-08-02T06:47:11.970Z,19.30
2022-08-02T06:49:52.953Z,19.50
2022-08-02T06:52:29.009Z,19.50
2022-08-02T06:55:00.921Z,19.50
2022-08-02T06:57:28.987Z,19.50
2022-08-02T06:59:56.256Z,19.50
2022-08-02T07:02:23.274Z,19.50
2022-08-02T07:04:51.098Z,19.50
2022-08-02T07:07:18.196Z,19.70
2022-08-02T07:09:56.587Z,19.80
2022-08-02T07:12:30.508Z,19.90
2022-08-02T07:14:59.415Z,19.80
2022-08-02T07:17:26.813Z,19.90
2022-08-02T07:19:53.773Z,20.00
2022-08-02T07:22:23.474Z,20.10
2022-08-02T07:24:51.531Z,20.10
2022-08-02T07:27:19.250Z,20.10
2022-08-02T07:29:47.471Z,20.20
2022-08-02T07:32:16.899Z,20.10
2022-08-02T07:34:46.295Z,20.20
2022-08-02T07:37:34.997Z,20.40
2022-08-02T07:40:12.392Z,20.60
2022-08-02T07:42:40.774Z,20.60
2022-08-02T07:45:08.051Z,20.60
2022-08-02T07:47:38.237Z,20.70
2022-08-02T07:50:06.197Z,20.70
2022-08-02T07:52:33.227Z,20.70
2022-08-02T07:55:00.133Z,20.80
2022-08-02T07:57:27.043Z,21.00
2022-08-02T07:59:53.942Z,21.00
2022-08-02T08:02:20.825Z,21.20
2022-08-02T08:04:47.772Z,21.30
2022-08-02T08:07:15.037Z,21.30
2022-08-02T08:09:43.983Z,21.40
2022-08-02T08:12:12.431Z,21.60
2022-08-02T08:14:40.065Z,21.80
2022-08-02T08:17:07.824Z,21.90
2022-08-02T08:19:51.349Z,21.90
2022-08-02T08:22:20.591Z,21.90
2022-08-02T08:24:48.688Z,21.70
2022-08-02T08:27:19.753Z,21.80
2022-08-02T08:29:46.714Z,21.90
2022-08-02T08:32:17.462Z,22.00
2022-08-02T08:34:46.365Z,22.10
2022-08-02T08:37:18.343Z,22.30
2022-08-02T08:39:58.427Z,22.40
2022-08-02T08:42:31.035Z,22.50
2022-08-02T08:44:59.309Z,22.50
2022-08-02T08:47:42.844Z,22.60
2022-08-02T08:50:18.049Z,22.80
2022-08-02T08:52:56.846Z,23.00
2022-08-02T08:55:25.364Z,23.10
2022-08-02T08:57:54.007Z,23.10
2022-08-02T09:00:21.311Z,23.10
2022-08-02T09:02:48.786Z,23.20
2022-08-02T09:05:17.140Z,23.30
2022-08-02T09:07:48.823Z,23.50
2022-08-02T09:10:39.314Z,23.50
2022-08-02T09:13:37.702Z,23.50
2022-08-02T09:16:11.401Z,23.50
2022-08-02T09:18:47.202Z,23.70
2022-08-02T09:21:17.005Z,24.00
2022-08-02T09:23:49.618Z,24.30
2022-08-02T09:26:24.192Z,24.40
2022-08-02T09:28:53.361Z,24.60
2022-08-02T09:31:24.561Z,24.70
2022-08-02T09:33:54.579Z,24.60
2022-08-02T09:36:22.979Z,24.60
2022-08-02T09:39:02.043Z,24.50
2022-08-02T09:41:31.448Z,24.50
2022-08-02T09:44:05.310Z,24.60
2022-08-02T09:46:40.021Z,24.60
2022-08-02T09:49:13.315Z,24.80
2022-08-02T09:51:49.034Z,24.90
2022-08-02T09:54:23.718Z,25.10
2022-08-02T09:57:01.784Z,25.30
2022-08-02T09:59:29.791Z,25.20
2022-08-02T10:02:02.559Z,25.10
2022-08-02T10:04:34.493Z,25.20
2022-08-02T10:07:21.554Z,25.20
2022-08-02T10:09:50.488Z,25.20
2022-08-02T10:12:19.660Z,25.60
2022-08-02T10:14:48.408Z,25.80
2022-08-02T10:17:15.897Z,26.20
2022-08-02T10:20:03.429Z,26.30
2022-08-02T10:22:30.449Z,26.40
2022-08-02T10:24:58.266Z,26.60
2022-08-02T10:27:35.078Z,26.20
2022-08-02T10:30:10.916Z,26.00
2022-08-02T10:32:42.998Z,26.00
2022-08-02T10:35:18.917Z,26.20
2022-08-02T10:37:55.528Z,26.40
2022-08-02T10:40:28.457Z,26.00
2022-08-02T10:43:01.632Z,26.00
2022-08-02T10:45:29.256Z,26.40
2022-08-02T10:48:14.748Z,26.50
2022-08-02T10:50:52.927Z,26.50
2022-08-02T10:53:37.052Z,26.50
2022-08-02T10:56:09.236Z,26.70
2022-08-02T10:58:36.667Z,26.80
2022-08-02T11:01:06.940Z,26.70
2022-08-02T11:03:42.032Z,26.60
2022-08-02T11:06:25.294Z,26.70
2022-08-02T11:09:33.396Z,26.80
2022-08-02T11:12:13.576Z,27.10
2022-08-02T11:14:43.826Z,27.30
2022-08-02T11:17:18.456Z,27.50
2022-08-02T11:20:14.025Z,27.70
2022-08-02T11:22:42.547Z,27.90
2022-08-02T11:25:24.703Z,27.90
2022-08-02T11:27:57.693Z,28.00
2022-08-02T11:30:27.221Z,28.20
2022-08-02T11:32:59.308Z,28.40
2022-08-02T11:35:38.086Z,28.50
2022-08-02T11:38:22.017Z,28.50
2022-08-02T11:40:49.510Z,28.50
2022-08-02T11:43:22.609Z,28.30
2022-08-02T11:45:53.933Z,28.20
2022-08-02T11:48:32.171Z,28.20
2022-08-02T11:51:06.367Z,28.50
2022-08-02T11:53:44.100Z,28.70
2022-08-02T11:56:11.603Z,28.70
2022-08-02T11:58:38.997Z,28.80
2022-08-02T12:01:09.546Z,28.80
2022-08-02T12:03:40.055Z,29.00
2022-08-02T12:06:16.222Z,29.30
2022-08-02T12:08:43.889Z,29.40
2022-08-02T12:11:21.873Z,29.50
2022-08-02T12:13:56.861Z,29.30
2022-08-02T12:16:43.349Z,29.40
2022-08-02T12:19:19.573Z,29.20
2022-08-02T12:21:47.436Z,29.30
2022-08-02T12:24:26.694Z,29.20
2022-08-02T12:26:53.621Z,29.30
2022-08-02T12:29:57.815Z,29.30
2022-08-02T12:32:24.872Z,29.10
2022-08-02T12:35:06.116Z,29.30
2022-08-02T12:37:33.670Z,29.60
2022-08-02T12:40:20.745Z,29.70
2022-08-02T12:42:54.212Z,30.10
2022-08-02T12:45:21.163Z,30.20
2022-08-02T12:47:50.972Z,30.20
2022-08-02T12:50:21.081Z,30.50
2022-08-02T12:52:49.635Z,30.70
2022-08-02T12:55:22.597Z,30.80
2022-08-02T12:58:19.148Z,31.60
2022-08-02T13:00:53.745Z,32.20
2022-08-02T13:04:12.030Z,33.10
2022-08-02T13:06:29.464Z,33.30
2022-08-02T13:08:57.160Z,33.80
2022-08-02T13:11:24.820Z,34.00
2022-08-02T13:13:51.869Z,34.90
2022-08-02T13:16:30.512Z,35.80
2022-08-02T13:18:59.637Z,36.30
2022-08-02T13:21:39.994Z,36.70
2022-08-02T13:24:32.890Z,35.90
2022-08-02T13:26:58.374Z,35.20
2022-08-02T13:29:25.758Z,35.20
2022-08-02T13:31:53.010Z,35.60
2022-08-02T13:34:20.023Z,36.20
2022-08-02T13:36:46.975Z,36.70
2022-08-02T13:39:14.312Z,36.30
2022-08-02T13:41:41.545Z,36.40
2022-08-02T13:44:10.811Z,37.00
2022-08-02T13:46:45.004Z,37.20
2022-08-02T13:49:19.429Z,37.90
2022-08-02T13:51:50.644Z,38.20
2022-08-02T13:54:17.861Z,37.90
2022-08-02T13:56:45.226Z,36.60
2022-08-02T13:59:21.925Z,36.80
2022-08-02T14:02:00.372Z,38.00
2022-08-02T14:04:28.492Z,39.20
2022-08-02T14:06:57.965Z,40.00
2022-08-02T14:09:26.444Z,39.60
2022-08-02T14:11:54.511Z,39.10
2022-08-02T14:14:21.744Z,39.10
2022-08-02T14:16:48.868Z,39.90
2022-08-02T14:19:17.392Z,39.80
2022-08-02T14:21:47.183Z,39.50
2022-08-02T14:24:18.041Z,39.50
2022-08-02T14:26:45.988Z,40.20
2022-08-02T14:29:14.160Z,40.40
2022-08-02T14:31:44.353Z,40.00
2022-08-02T14:34:15.339Z,39.90
2022-08-02T14:36:42.503Z,40.50
2022-08-02T14:39:10.929Z,40.10
2022-08-02T14:41:59.899Z,38.80
2022-08-02T14:44:25.231Z,38.70
2022-08-02T14:46:52.878Z,38.80
2022-08-02T14:49:24.570Z,39.20
2022-08-02T14:51:55.651Z,38.60
2022-08-02T14:54:28.226Z,38.20
2022-08-02T14:56:58.652Z,38.00
2022-08-02T14:59:25.671Z,38.60
2022-08-02T15:01:52.946Z,39.10
2022-08-02T15:04:20.201Z,40.00
2022-08-02T15:06:47.355Z,39.80
2022-08-02T15:09:14.548Z,40.00
2022-08-02T15:11:48.064Z,40.80
2022-08-02T15:14:25.630Z,40.50
2022-08-02T15:16:57.975Z,40.70
2022-08-02T15:19:56.570Z,39.50
2022-08-02T15:22:19.518Z,40.00
2022-08-02T15:24:47.852Z,39.60
2022-08-02T15:27:15.646Z,39.10
2022-08-02T15:29:44.699Z,38.80
2022-08-02T15:32:12.543Z,38.10
2022-08-02T15:34:40.706Z,37.60
2022-08-02T15:37:09.014Z,37.80
2022-08-02T15:39:36.666Z,37.50
2022-08-02T15:42:03.957Z,37.30
2022-08-02T15:44:31.716Z,36.80
2022-08-02T15:46:58.930Z,35.80
2022-08-02T15:49:26.423Z,35.00
2022-08-02T15:51:54.152Z,34.60
2022-08-02T15:54:21.348Z,34.20
2022-08-02T15:56:50.214Z,34.00
2022-08-02T15:59:17.337Z,34.30
2022-08-02T16:01:47.791Z,34.30
2022-08-02T16:04:16.556Z,34.60
2022-08-02T16:06:44.728Z,34.80
2022-08-02T16:09:12.184Z,34.70
2022-08-02T16:11:39.812Z,34.40
2022-08-02T16:14:07.025Z,34.70
2022-08-02T16:16:36.259Z,35.50
2022-08-02T16:19:46.799Z,36.10
2022-08-02T16:21:52.832Z,36.80
2022-08-02T16:24:20.375Z,37.30
2022-08-02T16:26:47.611Z,37.60
2022-08-02T16:29:18.988Z,36.60
2022-08-02T16:31:47.932Z,36.70
2022-08-02T16:34:15.766Z,36.90
2022-08-02T16:36:42.908Z,37.00
2022-08-02T16:39:10.535Z,37.30
2022-08-02T16:41:51.702Z,37.30
2022-08-02T16:44:29.698Z,36.90
2022-08-02T16:47:01.128Z,35.80
2022-08-02T16:50:05.558Z,36.20
2022-08-02T16:52:32.568Z,36.20
2022-08-02T16:55:01.667Z,35.10
2022-08-02T16:57:42.694Z,34.30
2022-08-02T17:00:12.597Z,34.20
2022-08-02T17:02:40.279Z,34.30
2022-08-02T17:05:13.915Z,35.10
2022-08-02T17:08:07.756Z,35.60
2022-08-02T17:10:30.646Z,35.90
2022-08-02T17:12:58.836Z,35.60
2022-08-02T17:16:07.713Z,35.20
2022-08-02T17:18:27.351Z,35.10
2022-08-02T17:20:55.515Z,35.00
2022-08-02T17:23:23.271Z,34.60
2022-08-02T17:26:10.353Z,34.00
2022-08-02T17:28:50.816Z,32.90
2022-08-02T17:31:29.842Z,32.00
2022-08-02T17:33:58.509Z,31.50
2022-08-02T17:36:25.821Z,31.00
2022-08-02T17:38:54.083Z,30.60
2022-08-02T17:41:37.786Z,30.40
2022-08-02T17:44:06.677Z,30.30
2022-08-02T17:46:35.914Z,30.50
2022-08-02T17:49:17.022Z,31.00
2022-08-02T17:52:16.020Z,31.60
2022-08-02T17:54:31.712Z,32.10
2022-08-02T17:56:58.687Z,32.40
2022-08-02T17:59:30.997Z,32.40
2022-08-02T18:02:09.223Z,32.30
2022-08-02T18:04:38.605Z,32.50
2022-08-02T18:07:09.800Z,32.40
2022-08-02T18:12:26.213Z,31.20
2022-08-02T18:14:55.332Z,30.90
2022-08-02T18:17:23.106Z,31.00
2022-08-02T18:19:56.386Z,31.30
2022-08-02T18:22:26.858Z,31.10
2022-08-02T18:24:55.121Z,31.10
2022-08-02T18:27:24.950Z,31.20
2022-08-02T18:33:58.736Z,30.90
2022-08-02T18:35:29.551Z,30.30
2022-08-02T18:38:03.383Z,30.00
2022-08-02T18:40:31.702Z,29.80
2022-08-02T18:42:59.463Z,29.60
2022-08-02T18:45:36.919Z,29.40
2022-08-02T18:48:18.098Z,29.30
2022-08-02T18:50:46.863Z,29.20
2022-08-02T18:53:14.513Z,28.90
2022-08-02T18:56:03.292Z,28.70
2022-08-02T18:58:29.211Z,28.50
2022-08-02T19:00:59.163Z,28.30
2022-08-02T19:03:26.912Z,28.20
2022-08-02T19:05:54.368Z,28.00
2022-08-02T19:08:25.444Z,28.00
2022-08-02T19:10:55.980Z,27.90
2022-08-02T19:13:23.943Z,27.80
2022-08-02T19:15:53.758Z,27.70
2022-08-02T19:18:26.942Z,27.60
2022-08-02T19:23:54.281Z,27.60
2022-08-02T19:26:22.662Z,27.70
2022-08-02T19:28:53.663Z,27.60
2022-08-02T19:31:21.828Z,27.60
2022-08-02T19:34:05.966Z,27.60
2022-08-02T19:36:34.882Z,27.50
2022-08-02T19:39:02.024Z,27.40
2022-08-02T19:41:29.296Z,27.40
2022-08-02T19:44:23.517Z,27.40
2022-08-02T19:46:56.018Z,27.30
2022-08-02T19:49:40.015Z,27.30
2022-08-02T19:52:20.834Z,27.10
2022-08-02T19:54:55.495Z,27.10
2022-08-02T19:57:25.252Z,27.00
2022-08-02T19:59:54.184Z,26.90
2022-08-02T20:02:23.573Z,26.90
2022-08-02T20:04:52.939Z,27.00
2022-08-02T20:07:54.376Z,26.90
2022-08-02T20:10:11.226Z,26.90
2022-08-02T20:12:40.030Z,26.90
2022-08-02T20:15:14.715Z,26.80
2022-08-02T20:17:47.608Z,26.70
2022-08-02T20:20:16.990Z,26.60
2022-08-02T20:23:32.901Z,26.60
2022-08-02T20:25:54.430Z,26.50
2022-08-02T20:28:22.373Z,26.40
2022-08-02T20:30:49.929Z,26.40
2022-08-02T20:33:21.193Z,26.40
2022-08-02T20:35:49.594Z,26.30
2022-08-02T20:38:16.879Z,26.20
2022-08-02T20:40:45.257Z,26.30
2022-08-02T20:43:12.162Z,26.20
2022-08-02T20:45:40.744Z,26.10
2022-08-02T20:48:07.741Z,26.00
2022-08-02T20:50:52.211Z,26.00
2022-08-02T20:53:23.729Z,26.00
2022-08-02T20:55:55.931Z,26.00
2022-08-02T20:58:26.792Z,25.90
2022-08-02T21:00:59.151Z,25.80
2022-08-02T21:03:39.176Z,25.80
2022-08-02T21:06:08.111Z,25.70
2022-08-02T21:08:35.269Z,25.70
2022-08-02T21:11:09.360Z,25.70
2022-08-02T21:13:46.292Z,25.60
2022-08-02T21:16:18.380Z,25.50
2022-08-02T21:18:48.050Z,25.50
2022-08-02T21:21:16.504Z,25.50
2022-08-02T21:23:44.983Z,25.50
2022-08-02T21:26:28.313Z,25.50
2022-08-02T21:28:58.240Z,25.50
2022-08-02T21:31:30.010Z,25.50
2022-08-02T21:34:00.310Z,25.50
2022-08-02T21:36:30.418Z,25.60
2022-08-02T21:39:04.721Z,25.60
2022-08-02T21:41:39.759Z,25.60
2022-08-02T21:44:19.541Z,25.50
2022-08-02T21:46:49.932Z,25.40
2022-08-02T21:49:18.576Z,25.30
2022-08-02T21:51:49.503Z,25.30
2022-08-02T21:54:20.227Z,25.20
2022-08-02T21:56:52.323Z,25.30
2022-08-02T21:59:26.167Z,25.30
2022-08-02T22:01:57.701Z,25.30
2022-08-02T22:04:26.404Z,25.30
2022-08-02T22:06:57.003Z,25.20
2022-08-02T22:09:44.206Z,25.10
2022-08-02T22:15:02.379Z,25.00
2022-08-02T22:17:53.195Z,24.90
2022-08-02T22:20:19.777Z,25.00
2022-08-02T22:22:50.170Z,25.00
2022-08-02T22:25:26.803Z,24.90
2022-08-02T22:28:38.051Z,24.90
2022-08-02T22:30:52.803Z,24.80
2022-08-02T22:33:42.110Z,24.80
2022-08-02T22:36:13.680Z,24.80
2022-08-02T22:38:48.814Z,24.70
2022-08-02T22:41:16.290Z,24.60
2022-08-02T22:43:44.126Z,24.50
2022-08-02T22:46:15.500Z,24.40
2022-08-02T22:48:44.573Z,24.40
2022-08-02T22:51:13.385Z,24.40
2022-08-02T22:53:41.674Z,24.20
2022-08-02T22:56:09.107Z,24.10
2022-08-02T22:58:44.382Z,31.00
2022-08-02T22:58:47.623Z,27.60
2022-08-02T22:58:59.210Z,31.80
2022-08-02T22:59:07.951Z,24.10
2022-08-02T22:59:12.093Z,25.00
2022-08-02T23:01:23.341Z,24.10
2022-08-02T23:03:50.407Z,24.00
2022-08-02T23:06:47.138Z,24.00
2022-08-02T23:09:15.229Z,23.90
2022-08-02T23:11:44.844Z,23.90
2022-08-02T23:14:14.789Z,23.90
2022-08-02T23:17:01.659Z,23.80
2022-08-02T23:19:55.764Z,23.60
2022-08-02T23:22:29.672Z,23.70
2022-08-02T23:25:00.414Z,23.60
2022-08-02T23:27:28.217Z,23.60
2022-08-02T23:29:55.415Z,23.60
2022-08-02T23:32:22.894Z,23.50
2022-08-02T23:34:53.600Z,23.40
2022-08-02T23:37:21.077Z,23.50
2022-08-02T23:39:48.101Z,23.50
2022-08-02T23:42:15.362Z,23.40
2022-08-02T23:44:43.424Z,23.40
2022-08-02T23:47:11.208Z,23.30
2022-08-02T23:49:38.550Z,23.30
2022-08-02T23:52:05.626Z,23.20
2022-08-02T23:54:32.572Z,23.10
2022-08-02T23:56:59.827Z,23.20
2022-08-02T23:59:26.969Z,23.20
